createdAt,value
2023-03-11T00:01:07.626Z,101609.97
2023-03-11T00:03:34.713Z,101611.94
2023-03-11T00:06:02.447Z,101602.94
2023-03-11T00:08:29.994Z,101599.03
2023-03-11T00:11:00.438Z,101602.09
2023-03-11T00:13:28.629Z,101590.91
2023-03-11T00:15:56.703Z,101590.06
2023-03-11T00:18:28.318Z,101591.75
2023-03-11T00:20:56.601Z,101594.81
2023-03-11T00:23:24.974Z,101595.66
2023-03-11T00:25:52.368Z,101591.16
2023-03-11T00:28:19.561Z,101590.06
2023-03-11T00:30:47.060Z,101597.34
2023-03-11T00:33:16.151Z,101594.81
2023-03-11T00:35:44.513Z,101606.00
2023-03-11T00:38:15.482Z,101598.47
2023-03-11T00:40:43.397Z,101610.75
2023-03-11T00:43:10.860Z,101617.19
2023-03-11T00:45:38.166Z,101614.41
2023-03-11T00:48:05.992Z,101615.50
2023-03-11T00:50:35.336Z,101616.34
2023-03-11T00:53:04.193Z,101618.31
2023-03-11T00:55:33.816Z,101611.84
2023-03-11T00:58:05.876Z,101614.06
2023-03-11T01:00:53.183Z,101613.22
2023-03-11T01:03:20.452Z,101618.56
2023-03-11T01:05:47.553Z,101619.41
2023-03-11T01:08:14.682Z,101627.22
2023-03-11T01:10:41.983Z,101623.31
2023-03-11T01:13:09.102Z,101614.06
2023-03-11T01:15:37.479Z,101616.88
2023-03-11T01:18:05.964Z,101614.31
2023-03-11T01:20:35.812Z,101602.28
2023-03-11T01:23:03.019Z,101601.19
2023-03-11T01:25:30.208Z,101590.25
2023-03-11T01:27:59.204Z,101594.16
2023-03-11T01:30:27.423Z,101585.75
2023-03-11T01:32:56.139Z,101579.31
2023-03-11T01:35:25.494Z,101574.81
2023-03-11T01:37:54.145Z,101579.56
2023-03-11T01:40:30.844Z,101573.97
2023-03-11T01:43:01.086Z,101568.38
2023-03-11T01:45:47.806Z,101563.88
2023-03-11T01:48:17.300Z,101566.69
2023-03-11T01:50:48.895Z,101553.81
2023-03-11T01:53:17.707Z,101559.41
2023-03-11T01:55:46.637Z,101558.81
2023-03-11T01:58:26.562Z,101545.41
2023-03-11T02:00:56.461Z,101544.84
2023-03-11T02:03:31.070Z,101539.25
2023-03-11T02:06:02.743Z,101542.03
2023-03-11T02:08:34.176Z,101533.63
2023-03-11T02:11:05.407Z,101524.66
2023-03-11T02:13:35.409Z,101530.25
2023-03-11T02:16:03.823Z,101529.63
2023-03-11T02:18:31.771Z,101526.59
2023-03-11T02:21:26.806Z,101502.75
2023-03-11T02:24:07.740Z,101502.28
2023-03-11T02:26:49.631Z,101502.75
2023-03-11T02:29:20.075Z,101493.25
2023-03-11T02:31:49.949Z,101496.31
2023-03-11T02:34:26.093Z,101485.97
2023-03-11T02:36:53.361Z,101481.47
2023-03-11T02:39:36.552Z,101478.69
2023-03-11T02:42:33.314Z,101480.63
2023-03-11T02:45:06.192Z,101482.59
2023-03-11T02:47:36.134Z,101468.00
2023-03-11T02:50:03.869Z,101477.25
2023-03-11T02:52:35.379Z,101470.81
2023-03-11T02:55:02.815Z,101478.34
2023-03-11T02:57:29.974Z,101464.63
2023-03-11T02:59:57.737Z,101465.47
2023-03-11T03:02:24.932Z,101474.97
2023-03-11T03:04:53.089Z,101462.09
2023-03-11T03:07:20.952Z,101462.94
2023-03-11T03:09:48.128Z,101466.25
2023-03-11T03:12:15.453Z,101457.84
2023-03-11T03:14:42.594Z,101457.84
2023-03-11T03:17:10.987Z,101459.25
2023-03-11T03:19:38.209Z,101468.22
2023-03-11T03:22:06.568Z,101451.97
2023-03-11T03:24:33.926Z,101464.00
2023-03-11T03:27:00.980Z,101458.41
2023-03-11T03:29:28.628Z,101462.31
2023-03-11T03:31:55.769Z,101462.31
2023-03-11T03:34:23.232Z,101453.91
2023-03-11T03:36:50.511Z,101452.22
2023-03-11T03:39:20.041Z,101442.72
2023-03-11T03:41:49.227Z,101453.06
2023-03-11T03:44:16.383Z,101448.56
2023-03-11T03:46:43.659Z,101436.53
2023-03-11T03:49:11.084Z,101446.88
2023-03-11T03:51:39.138Z,101452.47
2023-03-11T03:54:15.356Z,101441.53
2023-03-11T03:56:43.219Z,101439.84
2023-03-11T03:59:10.527Z,101438.75
2023-03-11T04:01:41.961Z,101436.22
2023-03-11T04:04:09.936Z,101426.13
2023-03-11T04:06:37.248Z,101435.88
2023-03-11T04:09:06.964Z,101420.78
2023-03-11T04:11:35.710Z,101431.97
2023-03-11T04:14:05.849Z,101433.66
2023-03-11T04:16:36.858Z,101437.56
2023-03-11T04:19:09.404Z,101429.19
2023-03-11T04:21:37.016Z,101430.03
2023-03-11T04:24:04.983Z,101425.53
2023-03-11T04:26:35.888Z,101421.31
2023-03-11T04:29:03.725Z,101411.81
2023-03-11T04:31:35.549Z,101405.38
2023-03-11T04:34:05.971Z,101406.22
2023-03-11T04:36:33.401Z,101410.13
2023-03-11T04:39:01.158Z,101404.53
2023-03-11T04:41:32.697Z,101398.09
2023-03-11T04:44:00.576Z,101407.59
2023-03-11T04:46:28.294Z,101404.53
2023-03-11T04:48:59.460Z,101406.75
2023-03-11T04:51:26.638Z,101393.03
2023-03-11T04:53:54.062Z,101393.84
2023-03-11T04:56:21.376Z,101389.13
2023-03-11T04:58:49.487Z,101386.59
2023-03-11T05:01:17.385Z,101381.00
2023-03-11T05:03:45.136Z,101382.13
2023-03-11T05:06:12.522Z,101382.63
2023-03-11T05:08:40.649Z,101393.31
2023-03-11T05:11:09.449Z,101383.22
2023-03-11T05:13:36.616Z,101381.53
2023-03-11T05:16:04.594Z,101380.69
2023-03-11T05:18:32.661Z,101375.34
2023-03-11T05:21:00.337Z,101370.28
2023-03-11T05:23:31.158Z,101382.06
2023-03-11T05:25:58.572Z,101385.97
2023-03-11T05:28:26.051Z,101381.22
2023-03-11T05:30:54.165Z,101392.66
2023-03-11T05:33:22.317Z,101390.97
2023-03-11T05:35:52.141Z,101392.06
2023-03-11T05:38:20.366Z,101383.09
2023-03-11T05:40:48.326Z,101389.28
2023-03-11T05:43:15.516Z,101392.06
2023-03-11T05:45:45.899Z,101391.47
2023-03-11T05:48:13.356Z,101395.38
2023-03-11T05:50:40.600Z,101395.38
2023-03-11T05:53:07.870Z,101383.59
2023-03-11T05:55:35.325Z,101380.56
2023-03-11T05:58:02.516Z,101375.47
2023-03-11T06:00:29.755Z,101379.13
2023-03-11T06:02:59.737Z,101370.72
2023-03-11T06:05:27.137Z,101378.28
2023-03-11T06:07:56.088Z,101381.06
2023-03-11T06:10:24.042Z,101372.97
2023-03-11T06:12:51.720Z,101378.28
2023-03-11T06:15:39.140Z,101377.47
2023-03-11T06:18:06.339Z,101389.47
2023-03-11T06:20:36.502Z,101381.06
2023-03-11T06:23:03.618Z,101391.44
2023-03-11T06:25:30.702Z,101381.66
2023-03-11T06:27:57.793Z,101384.44
2023-03-11T06:30:25.675Z,101373.28
2023-03-11T06:32:59.944Z,101367.41
2023-03-11T06:35:27.325Z,101369.44
2023-03-11T06:37:55.799Z,101363.59
2023-03-11T06:40:23.619Z,101374.25
2023-03-11T06:42:50.813Z,101378.78
2023-03-11T06:45:20.801Z,101370.13
2023-03-11T06:47:49.302Z,101372.72
2023-03-11T06:50:17.032Z,101371.09
2023-03-11T06:52:44.261Z,101373.09
2023-03-11T06:55:11.535Z,101377.88
2023-03-11T06:57:39.488Z,101367.59
2023-03-11T07:00:12.598Z,101365.72
2023-03-11T07:02:42.807Z,101357.38
2023-03-11T07:05:10.882Z,101361.91
2023-03-11T07:07:38.237Z,101371.47
2023-03-11T07:10:06.606Z,101376.28
2023-03-11T07:12:33.814Z,101382.75
2023-03-11T07:15:01.147Z,101394.00
2023-03-11T07:17:30.124Z,101393.19
2023-03-11T07:19:57.918Z,101390.69
2023-03-11T07:22:25.071Z,101396.34
2023-03-11T07:24:52.274Z,101394.69
2023-03-11T07:27:19.818Z,101393.31
2023-03-11T07:29:46.936Z,101391.94
2023-03-11T07:32:14.366Z,101397.28
2023-03-11T07:34:41.625Z,101388.63
2023-03-11T07:37:08.964Z,101383.03
2023-03-11T07:39:36.062Z,101382.50
2023-03-11T07:42:05.669Z,101382.50
2023-03-11T07:44:36.684Z,101385.28
2023-03-11T07:47:05.764Z,101384.19
2023-03-11T07:49:33.851Z,101379.69
2023-03-11T07:52:01.072Z,101383.59
2023-03-11T07:54:28.456Z,101381.66
2023-03-11T07:56:55.637Z,101381.97
2023-03-11T07:59:22.793Z,101388.66
2023-03-11T08:01:50.739Z,101387.56
2023-03-11T08:04:17.987Z,101383.66
2023-03-11T08:06:47.634Z,101378.63
2023-03-11T08:09:15.316Z,101389.56
2023-03-11T08:11:43.077Z,101387.03
2023-03-11T08:14:10.432Z,101392.94
2023-03-11T08:16:40.434Z,101382.00
2023-03-11T08:19:07.726Z,101392.72
2023-03-11T08:21:34.836Z,101382.66
2023-03-11T08:24:04.091Z,101388.84
2023-03-11T08:26:32.131Z,101376.53
2023-03-11T08:28:59.853Z,101376.81
2023-03-11T08:31:30.296Z,101383.28
2023-03-11T08:34:03.421Z,101371.50
2023-03-11T08:36:31.606Z,101378.25
2023-03-11T12:39:36.333Z,101200.94
2023-03-11T12:42:26.953Z,101183.22
2023-03-11T12:44:58.174Z,101190.25
2023-03-11T12:47:29.434Z,101185.75
2023-03-11T12:50:52.678Z,101171.97
2023-03-11T12:53:20.427Z,101160.75
2023-03-11T12:56:08.960Z,101160.19
2023-03-11T12:58:57.259Z,101154.00
2023-03-11T13:02:08.303Z,101158.78
2023-03-11T13:05:02.509Z,101145.88
2023-03-11T13:07:50.512Z,101145.31
2023-03-11T13:10:46.197Z,101125.38
2023-03-11T13:13:38.347Z,101134.34
2023-03-11T13:16:14.482Z,101141.09
2023-03-11T13:18:44.212Z,101138.25
2023-03-11T13:21:32.564Z,101107.34
2023-03-11T13:24:31.727Z,101114.09
2023-03-11T13:26:59.685Z,101104.81
2023-03-11T13:30:06.120Z,101109.25
2023-03-11T13:32:53.831Z,101108.09
2023-03-11T13:35:48.564Z,101103.88
2023-03-11T13:38:34.693Z,101118.19
2023-03-11T13:41:04.663Z,101099.09
2023-03-11T13:43:33.025Z,101096.56
2023-03-11T13:46:42.034Z,101103.56
2023-03-11T13:49:32.172Z,101094.31
2023-03-11T13:52:05.097Z,101088.13
2023-03-11T13:54:49.013Z,101077.47
2023-03-11T13:57:36.722Z,101080.28
2023-03-11T14:00:24.268Z,101078.03
2023-03-11T14:02:56.127Z,101082.81
2023-03-11T14:05:27.490Z,101079.47
2023-03-11T14:08:26.674Z,101073.00
2023-03-11T14:11:16.442Z,101081.41
2023-03-11T14:13:50.234Z,101078.06
2023-03-11T14:16:44.856Z,101064.00
2023-03-11T14:19:18.194Z,101069.34
2023-03-11T14:21:50.142Z,101052.78
2023-03-11T14:24:21.439Z,101051.66
2023-03-11T14:26:50.521Z,101042.09
2023-03-11T14:29:21.625Z,101044.34
2023-03-11T14:31:49.472Z,101045.44
2023-03-11T14:34:23.260Z,101052.75
2023-03-11T14:36:55.670Z,101052.75
2023-03-11T14:39:44.189Z,101046.28
2023-03-11T14:42:47.720Z,101051.91
2023-03-11T14:45:20.063Z,101052.75
2023-03-11T14:47:59.654Z,101051.06
2023-03-11T14:50:32.962Z,101046.28
2023-03-11T14:53:05.865Z,101039.25
2023-03-11T14:55:58.466Z,101043.19
2023-03-11T14:58:42.659Z,101042.63
2023-03-11T15:01:45.147Z,101037.00
2023-03-11T15:04:17.000Z,101029.41
2023-03-11T15:06:46.736Z,101030.00
2023-03-11T15:09:23.174Z,101035.31
2023-03-11T15:11:59.075Z,101044.88
2023-03-11T15:14:32.929Z,101052.47
2023-03-11T15:17:35.365Z,101047.97
2023-03-11T15:20:24.966Z,101053.31
2023-03-11T15:23:01.720Z,101047.66
2023-03-11T15:25:35.048Z,101043.13
2023-03-11T15:28:22.607Z,101045.91
2023-03-11T15:30:51.008Z,101050.94
2023-03-11T15:33:34.540Z,101061.03
2023-03-11T15:36:02.689Z,101055.63
2023-03-11T15:38:31.835Z,101062.63
2023-03-11T15:41:02.186Z,101059.19
2023-03-11T15:43:35.307Z,101065.03
2023-03-11T15:46:04.161Z,101061.31
2023-03-11T15:48:35.791Z,101063.47
2023-03-11T15:51:03.707Z,101060.03
2023-03-11T15:53:33.911Z,101068.19
2023-03-11T15:56:10.955Z,101070.09
2023-03-11T15:58:44.059Z,101080.47
2023-03-11T16:01:11.995Z,101073.13
2023-03-11T16:03:40.754Z,101067.94
2023-03-11T16:06:11.294Z,101064.31
2023-03-11T16:08:42.606Z,101076.13
2023-03-11T16:11:13.399Z,101076.13
2023-03-11T16:13:44.369Z,101082.66
2023-03-11T16:16:21.015Z,101075.09
2023-03-11T16:18:50.547Z,101070.00
2023-03-11T16:21:22.684Z,101069.50
2023-03-11T16:23:52.460Z,101075.19
2023-03-11T16:26:23.211Z,101070.22
2023-03-11T16:28:54.693Z,101077.59
2023-03-11T16:31:22.242Z,101075.13
2023-03-11T16:33:51.433Z,101084.44
2023-03-11T16:36:22.427Z,101081.44
2023-03-11T16:38:51.784Z,101091.31
2023-03-11T16:41:19.664Z,101085.72
2023-03-11T16:43:47.366Z,101086.34
2023-03-11T16:46:15.089Z,101092.84
2023-03-11T16:48:45.301Z,101095.97
2023-03-11T16:51:13.307Z,101096.56
2023-03-11T16:53:43.588Z,101108.38
2023-03-11T16:56:16.159Z,101109.78
2023-03-11T16:58:49.624Z,101110.34
2023-03-11T17:01:22.682Z,101112.91
2023-03-11T17:03:50.999Z,101107.56
2023-03-11T17:06:22.049Z,101109.00
2023-03-11T17:08:50.664Z,101120.25
2023-03-11T17:11:25.005Z,101115.19
2023-03-11T17:13:53.383Z,101110.72
2023-03-11T17:16:23.735Z,101112.97
2023-03-11T17:18:51.637Z,101110.16
2023-03-11T17:21:20.692Z,101127.56
2023-03-11T17:23:49.413Z,101137.13
2023-03-11T17:26:22.072Z,101148.94
2023-03-11T17:28:51.697Z,101143.88
2023-03-11T17:31:20.023Z,101153.44
2023-03-11T17:33:47.342Z,101160.47
2023-03-11T17:36:18.140Z,101167.47
2023-03-11T17:38:49.203Z,101170.28
2023-03-11T17:41:20.395Z,101178.72
2023-03-11T17:43:51.609Z,101190.25
2023-03-11T17:46:21.500Z,101190.81
2023-03-11T17:48:52.872Z,101191.41
2023-03-11T17:51:24.400Z,101193.94
2023-03-11T17:53:55.060Z,101204.59
2023-03-11T17:56:22.867Z,101205.16
2023-03-11T17:58:54.163Z,101213.56
2023-03-11T18:01:26.375Z,101202.34
2023-03-11T18:03:55.085Z,101239.13
2023-03-11T18:06:25.645Z,101227.34
2023-03-11T18:08:54.504Z,101241.09
2023-03-11T18:11:28.205Z,101246.16
2023-03-11T18:13:56.780Z,101255.97
2023-03-11T18:16:29.117Z,101247.84
2023-03-11T18:19:09.308Z,101265.22
2023-03-11T18:44:00.513Z,101291.31
2023-03-11T18:46:34.484Z,101293.56
2023-03-11T18:49:03.864Z,101293.84
2023-03-11T18:51:33.316Z,101307.31
2023-03-11T18:54:03.092Z,101311.25
2023-03-11T18:56:37.461Z,101319.38
2023-03-11T18:59:06.379Z,101326.69
2023-03-11T19:01:37.749Z,101325.84
2023-03-11T19:04:07.027Z,101326.38
2023-03-11T19:06:37.380Z,101330.31
2023-03-11T19:09:08.323Z,101329.19
2023-03-11T19:11:37.901Z,101335.38
2023-03-11T19:14:06.403Z,101340.44
2023-03-11T19:16:34.901Z,101342.69
2023-03-11T19:19:11.832Z,101351.69
2023-03-11T19:21:42.395Z,101361.22
2023-03-11T20:01:15.845Z,101415.59
2023-03-11T20:03:44.922Z,101421.50
2023-03-11T20:06:18.047Z,101430.16
2023-03-11T20:08:48.205Z,101429.56
2023-03-11T20:11:16.029Z,101436.31
2023-03-11T20:13:44.964Z,101445.00
2023-03-11T20:16:18.375Z,101456.47
2023-03-11T20:18:50.897Z,101460.41
2023-03-11T20:21:22.281Z,101456.19
2023-03-11T20:23:52.661Z,101472.16
2023-03-11T20:33:24.432Z,101472.16
2023-03-11T20:35:51.706Z,101478.03
2023-03-11T21:03:26.178Z,101484.41
2023-03-11T21:05:53.546Z,101475.44
2023-03-11T21:08:20.688Z,101473.75
2023-03-11T21:10:48.406Z,101472.03
2023-03-11T21:13:15.693Z,101478.81
2023-03-11T21:15:45.473Z,101486.38
2023-03-11T21:18:14.725Z,101490.28
2023-03-11T21:20:42.245Z,101481.03
2023-03-11T21:23:13.620Z,101482.16
2023-03-11T21:25:43.653Z,101477.66
2023-03-11T21:28:11.061Z,101472.31
2023-03-11T21:30:42.431Z,101487.19
2023-03-11T21:33:10.390Z,101481.00
2023-03-11T21:35:38.979Z,101481.00
2023-03-11T21:38:06.211Z,101478.19
2023-03-11T21:40:33.986Z,101470.88
2023-03-11T21:43:01.858Z,101462.75
2023-03-11T21:45:29.576Z,101469.19
2023-03-11T21:47:56.932Z,101463.00
2023-03-11T21:50:27.843Z,101462.16
2023-03-11T21:52:55.293Z,101465.81
2023-03-11T21:55:23.149Z,101455.72
2023-03-11T21:57:50.837Z,101459.63
2023-03-11T22:00:19.845Z,101455.13
2023-03-11T22:02:51.599Z,101458.78
2023-03-11T22:05:22.751Z,101458.78
2023-03-11T22:07:51.507Z,101466.34
2023-03-11T22:10:20.745Z,101487.94
2023-03-11T22:16:31.772Z,101490.75
2023-03-11T22:18:59.523Z,101502.22
2023-03-11T22:21:28.865Z,101505.03
2023-03-11T22:23:56.139Z,101510.94
2023-03-11T22:26:25.132Z,101503.38
2023-03-11T22:28:52.757Z,101511.78
2023-03-11T22:31:21.245Z,101514.00
2023-03-11T22:33:51.608Z,101520.72
2023-03-11T22:36:19.661Z,101520.72
2023-03-11T22:38:47.788Z,101514.25
2023-03-11T22:41:18.405Z,101526.59
2023-03-11T22:44:00.113Z,101534.16
2023-03-11T22:46:28.060Z,101539.19
2023-03-11T22:48:56.821Z,101537.47
2023-03-11T22:51:24.511Z,101538.59
2023-03-11T22:53:54.854Z,101539.72
2023-03-11T22:56:23.820Z,101541.66
2023-03-11T22:58:52.597Z,101549.22
2023-03-11T23:01:20.224Z,101542.78
2023-03-11T23:03:50.602Z,101543.63
2023-03-11T23:06:20.023Z,101542.19
2023-03-11T23:08:49.299Z,101548.66
2023-03-11T23:11:21.612Z,101546.94
2023-03-11T23:13:52.497Z,101558.16
2023-03-11T23:16:24.651Z,101542.47
2023-03-11T23:18:54.410Z,101536.00
2023-03-11T23:21:28.204Z,101536.00
2023-03-11T23:23:55.813Z,101529.56
2023-03-11T23:26:26.525Z,101521.16
2023-03-11T23:28:56.699Z,101517.78
2023-03-11T23:31:28.721Z,101508.53
2023-03-11T23:33:58.141Z,101514.16
2023-03-11T23:36:34.221Z,101518.91
2023-03-11T23:39:06.562Z,101518.06
2023-03-11T23:41:34.252Z,101516.09
2023-03-11T23:44:01.555Z,101520.88
2023-03-11T23:46:30.067Z,101518.31
2023-03-11T23:49:01.331Z,101518.31
2023-03-11T23:51:30.743Z,101511.88
2023-03-11T23:53:58.366Z,101509.06
2023-03-11T23:56:27.148Z,101516.63
2023-03-11T23:58:54.858Z,101509.06
